Time;durP1;ratioP1;P1;durP2;ratioP2;P2;SDS_P1;SDS_P2;PMS_P1;PMS_P2;Temp;Humidity;BMP_temperature;BMP_pressure;BME280_temperature;BME280_humidity;BME280_pressure;Samples;Min_cycle;Max_cycle;Signal;HPM_P1;HPM_P2
2023/03/07 00:04:53;;;;;;;;;;;17.50;41.70;;;;;;10366348;28;1964;-80
2023/03/07 00:09:48;;;;;;;;;;;17.50;41.60;;;;;;10366568;28;993;-80
2023/03/07 00:14:44;;;;;;;;;;;17.50;41.70;;;;;;10366285;28;878;-80
2023/03/07 00:19:39;;;;;;;;;;;17.50;41.90;;;;;;10366210;28;919;-80
2023/03/07 00:24:35;;;;;;;;;;;17.50;41.90;;;;;;10364865;28;1906;-79
2023/03/07 00:29:30;;;;;;;;;;;17.40;41.70;;;;;;10365390;28;910;-80
2023/03/07 00:34:26;;;;;;;;;;;17.40;41.90;;;;;;10366346;28;943;-80
2023/03/07 00:39:21;;;;;;;;;;;17.50;41.90;;;;;;10371281;28;1325;-80
2023/03/07 00:44:16;;;;;;;;;;;17.40;41.80;;;;;;10373280;28;1917;-79
2023/03/07 00:49:12;;;;;;;;;;;17.40;41.60;;;;;;10371919;28;1044;-80
2023/03/07 00:54:07;;;;;;;;;;;17.40;41.50;;;;;;10372365;28;771;-80
2023/03/07 00:59:03;;;;;;;;;;;17.40;41.90;;;;;;10372117;28;780;-79
2023/03/07 01:03:58;;;;;;;;;;;17.40;41.50;;;;;;10371851;28;1964;-80
2023/03/07 01:08:53;;;;;;;;;;;17.40;41.50;;;;;;10372352;28;882;-80
2023/03/07 01:13:49;;;;;;;;;;;17.40;41.70;;;;;;10371593;28;867;-79
2023/03/07 01:18:44;;;;;;;;;;;17.40;41.60;;;;;;10372577;28;937;-80
2023/03/07 01:23:39;;;;;;;;;;;17.40;41.70;;;;;;10371716;28;1910;-80
2023/03/07 01:28:35;;;;;;;;;;;17.40;41.70;;;;;;10370396;28;846;-79
2023/03/07 01:33:30;;;;;;;;;;;17.40;41.50;;;;;;10370209;28;752;-80
2023/03/07 01:38:27;;;;;;;;;;;17.30;41.70;;;;;;10370570;28;864;-79
2023/03/07 01:43:23;;;;;;;;;;;17.30;41.90;;;;;;10369588;28;1906;-80
2023/03/07 01:48:18;;;;;;;;;;;17.30;41.80;;;;;;10370742;28;807;-80
2023/03/07 01:53:14;;;;;;;;;;;17.30;41.80;;;;;;10370069;28;818;-80
2023/03/07 01:58:10;;;;;;;;;;;17.20;41.70;;;;;;10369715;28;909;-80
2023/03/07 02:03:05;;;;;;;;;;;17.20;41.70;;;;;;10370060;28;1972;-80
2023/03/07 02:08:01;;;;;;;;;;;17.20;41.80;;;;;;10368782;28;925;-80
2023/03/07 02:12:56;;;;;;;;;;;17.20;41.80;;;;;;10368598;28;893;-80
2023/03/07 02:17:52;;;;;;;;;;;17.20;41.70;;;;;;10369101;28;756;-80
2023/03/07 02:22:48;;;;;;;;;;;17.10;42.00;;;;;;10369340;28;1906;-80
2023/03/07 02:27:43;;;;;;;;;;;17.10;42.00;;;;;;10369225;28;814;-79
2023/03/07 02:32:39;;;;;;;;;;;17.20;41.80;;;;;;10368502;28;835;-80
2023/03/07 02:37:34;;;;;;;;;;;17.20;41.70;;;;;;10368217;28;1125;-79
2023/03/07 02:42:29;;;;;;;;;;;17.20;41.60;;;;;;10367384;28;1914;-80
2023/03/07 02:47:25;;;;;;;;;;;17.20;41.60;;;;;;10369058;28;850;-80
2023/03/07 02:52:20;;;;;;;;;;;17.20;41.70;;;;;;10369196;28;830;-79
2023/03/07 02:57:16;;;;;;;;;;;17.20;42.00;;;;;;10368129;28;872;-80
2023/03/07 03:02:11;;;;;;;;;;;17.20;41.70;;;;;;10366927;28;773;-80
2023/03/07 03:07:07;;;;;;;;;;;17.20;42.30;;;;;;10367163;28;1902;-79
2023/03/07 03:12:03;;;;;;;;;;;17.20;41.90;;;;;;10366388;28;1096;-80
2023/03/07 03:16:58;;;;;;;;;;;17.20;41.70;;;;;;10366948;28;885;-80
2023/03/07 03:21:54;;;;;;;;;;;17.20;41.60;;;;;;10366793;28;879;-79
2023/03/07 03:26:49;;;;;;;;;;;17.20;42.00;;;;;;10367290;28;1989;-79
2023/03/07 03:31:44;;;;;;;;;;;17.20;41.70;;;;;;10366534;28;883;-79
2023/03/07 03:36:40;;;;;;;;;;;17.20;41.80;;;;;;10366451;28;800;-80
2023/03/07 03:41:35;;;;;;;;;;;17.20;41.90;;;;;;10367019;28;1373;-79
2023/03/07 03:46:30;;;;;;;;;;;17.20;42.00;;;;;;10365716;28;1913;-80
2023/03/07 03:51:26;;;;;;;;;;;17.30;42.00;;;;;;10366155;28;783;-80
2023/03/07 03:56:21;;;;;;;;;;;17.20;41.90;;;;;;10367213;28;902;-80
2023/03/07 04:01:17;;;;;;;;;;;17.20;42.00;;;;;;10366542;28;877;-80
2023/03/07 04:06:12;;;;;;;;;;;17.20;42.20;;;;;;10365928;28;1905;-80
2023/03/07 04:11:07;;;;;;;;;;;17.10;42.20;;;;;;10366508;28;848;-79
2023/03/07 04:16:03;;;;;;;;;;;17.10;42.00;;;;;;10373885;28;901;-79
2023/03/07 04:20:58;;;;;;;;;;;17.10;42.10;;;;;;10374931;28;886;-79
2023/03/07 04:25:56;;;;;;;;;;;17.10;42.00;;;;;;10373698;28;1967;-80
2023/03/07 04:30:52;;;;;;;;;;;17.10;42.00;;;;;;10374366;28;877;-80
2023/03/07 04:35:47;;;;;;;;;;;17.10;42.10;;;;;;10373109;28;828;-80
2023/03/07 04:40:42;;;;;;;;;;;17.10;42.30;;;;;;10372949;28;1230;-79
2023/03/07 04:45:38;;;;;;;;;;;17.10;41.90;;;;;;10372895;28;1910;-80
2023/03/07 04:50:33;;;;;;;;;;;17.10;42.10;;;;;;10373157;28;858;-80
2023/03/07 04:55:28;;;;;;;;;;;17.20;42.00;;;;;;10372382;28;803;-80
2023/03/07 05:00:24;;;;;;;;;;;17.20;42.00;;;;;;10372908;28;815;-80
2023/03/07 05:05:19;;;;;;;;;;;17.20;42.00;;;;;;10371935;28;1894;-80
2023/03/07 05:10:15;;;;;;;;;;;17.20;42.10;;;;;;10371418;28;1537;-80
2023/03/07 05:15:11;;;;;;;;;;;17.20;42.10;;;;;;10372266;28;893;-80
2023/03/07 05:20:06;;;;;;;;;;;17.30;42.20;;;;;;10371375;28;831;-80
2023/03/07 05:25:01;;;;;;;;;;;17.30;42.00;;;;;;10370133;28;1910;-80
2023/03/07 05:29:57;;;;;;;;;;;17.30;42.10;;;;;;10370402;28;854;-80
2023/03/07 05:34:52;;;;;;;;;;;17.30;42.10;;;;;;10370792;28;988;-73
2023/03/07 05:39:47;;;;;;;;;;;17.40;42.10;;;;;;10370331;28;1291;-73
2023/03/07 05:44:43;;;;;;;;;;;17.40;42.10;;;;;;10370354;28;1975;-73
2023/03/07 05:49:38;;;;;;;;;;;17.50;42.10;;;;;;10370236;28;862;-73
2023/03/07 05:54:33;;;;;;;;;;;17.40;42.20;;;;;;10370675;28;921;-76
2023/03/07 05:59:29;;;;;;;;;;;17.40;42.30;;;;;;10370475;28;814;-71
2023/03/07 06:04:24;;;;;;;;;;;17.50;42.70;;;;;;10370177;28;1965;-72
2023/03/07 06:09:22;;;;;;;;;;;17.50;42.70;;;;;;10369434;28;799;-73
2023/03/07 06:14:17;;;;;;;;;;;17.50;42.60;;;;;;10369805;28;825;-73
2023/03/07 06:19:13;;;;;;;;;;;17.50;42.60;;;;;;10369878;28;857;-73
2023/03/07 06:24:08;;;;;;;;;;;17.50;42.80;;;;;;10368761;28;1901;-73
2023/03/07 06:29:03;;;;;;;;;;;17.50;42.60;;;;;;10368058;28;909;-72
2023/03/07 06:33:59;;;;;;;;;;;17.50;42.70;;;;;;10367075;28;956;-72
2023/03/07 06:38:54;;;;;;;;;;;17.50;42.60;;;;;;10368024;28;1124;-72
2023/03/07 06:43:49;;;;;;;;;;;17.50;42.90;;;;;;10368655;28;1971;-72
2023/03/07 06:48:45;;;;;;;;;;;17.50;42.70;;;;;;10367976;28;936;-73
2023/03/07 06:53:40;;;;;;;;;;;17.50;43.00;;;;;;10367749;28;933;-73
2023/03/07 06:58:36;;;;;;;;;;;17.40;43.20;;;;;;10367605;28;980;-72
2023/03/07 07:03:31;;;;;;;;;;;17.40;42.70;;;;;;10366755;28;1959;-72
2023/03/07 07:08:26;;;;;;;;;;;17.40;42.40;;;;;;10367245;28;748;-72
2023/03/07 07:13:22;;;;;;;;;;;17.40;42.10;;;;;;10367099;28;769;-73
2023/03/07 07:18:17;;;;;;;;;;;17.30;42.40;;;;;;10366590;28;917;-73
2023/03/07 07:23:12;;;;;;;;;;;17.30;42.70;;;;;;10366806;28;1906;-73
2023/03/07 07:28:08;;;;;;;;;;;17.30;42.60;;;;;;10366879;28;917;-72
2023/03/07 07:33:03;;;;;;;;;;;17.40;42.50;;;;;;10367132;28;838;-73
2023/03/07 07:37:59;;;;;;;;;;;17.40;42.80;;;;;;10366367;28;865;-73
2023/03/07 07:42:54;;;;;;;;;;;17.50;42.90;;;;;;10366730;28;1971;-72
2023/03/07 07:47:49;;;;;;;;;;;17.50;43.00;;;;;;10375891;28;951;-73
2023/03/07 07:52:45;;;;;;;;;;;17.50;42.80;;;;;;10380550;28;830;-72
2023/03/07 07:57:40;;;;;;;;;;;17.50;42.40;;;;;;10379847;28;799;-73
2023/03/07 08:02:36;;;;;;;;;;;17.50;42.80;;;;;;10379945;28;1963;-77
2023/03/07 08:07:31;;;;;;;;;;;17.50;42.70;;;;;;10379049;28;965;-78
2023/03/07 08:12:26;;;;;;;;;;;17.50;42.70;;;;;;10380348;28;964;-78
2023/03/07 08:17:22;;;;;;;;;;;17.50;42.90;;;;;;10378865;28;870;-78
2023/03/07 08:22:18;;;;;;;;;;;17.50;42.70;;;;;;10379987;28;870;-75
2023/03/07 08:27:13;;;;;;;;;;;17.60;42.90;;;;;;10379538;28;1898;-76
2023/03/07 08:32:09;;;;;;;;;;;17.40;43.40;;;;;;10379228;28;814;-76
2023/03/07 08:37:04;;;;;;;;;;;17.30;43.30;;;;;;10379070;28;837;-75
2023/03/07 08:41:59;;;;;;;;;;;17.30;43.20;;;;;;10379194;28;1452;-75
2023/03/07 08:46:55;;;;;;;;;;;17.30;43.10;;;;;;10378805;28;1979;-75
2023/03/07 08:51:50;;;;;;;;;;;17.30;43.20;;;;;;10378225;28;894;-74
2023/03/07 08:56:45;;;;;;;;;;;17.20;43.10;;;;;;10377061;28;922;-75
2023/03/07 09:01:41;;;;;;;;;;;17.20;43.20;;;;;;10372139;28;810;-76
2023/03/07 09:06:36;;;;;;;;;;;17.20;42.90;;;;;;10371842;28;1894;-77
2023/03/07 09:11:31;;;;;;;;;;;17.30;43.10;;;;;;10371804;28;865;-79
2023/03/07 09:16:27;;;;;;;;;;;17.40;43.40;;;;;;10371884;28;915;-79
2023/03/07 09:21:22;;;;;;;;;;;17.40;43.40;;;;;;10370827;28;838;-77
2023/03/07 09:26:18;;;;;;;;;;;17.40;43.50;;;;;;10371115;28;1898;-80
2023/03/07 09:31:13;;;;;;;;;;;17.50;43.60;;;;;;10371062;28;786;-80
2023/03/07 09:36:08;;;;;;;;;;;17.50;43.90;;;;;;10370829;28;846;-78
2023/03/07 09:41:04;;;;;;;;;;;17.50;43.80;;;;;;10370797;28;1205;-76
2023/03/07 09:45:59;;;;;;;;;;;17.40;44.10;;;;;;10370414;28;1914;-75
2023/03/07 09:50:54;;;;;;;;;;;17.40;45.10;;;;;;10370865;28;883;-78
2023/03/07 09:55:51;;;;;;;;;;;17.40;46.30;;;;;;10370098;28;1253;-78
2023/03/07 10:00:46;;;;;;;;;;;17.40;46.80;;;;;;10369786;28;909;-76
2023/03/07 10:05:42;;;;;;;;;;;17.40;46.70;;;;;;10369596;28;1964;-80
2023/03/07 10:10:38;;;;;;;;;;;17.40;46.50;;;;;;10368207;28;850;-79
2023/03/07 10:15:34;;;;;;;;;;;17.40;46.20;;;;;;10369849;28;849;-78
2023/03/07 10:20:29;;;;;;;;;;;17.50;45.60;;;;;;10369644;28;810;-77
2023/03/07 10:25:24;;;;;;;;;;;17.40;45.40;;;;;;10368393;28;1897;-77
2023/03/07 10:30:20;;;;;;;;;;;17.50;45.00;;;;;;10368071;28;898;-74
2023/03/07 10:35:16;;;;;;;;;;;17.40;45.10;;;;;;10369498;28;862;-75
2023/03/07 10:40:11;;;;;;;;;;;17.50;45.40;;;;;;10368009;28;1329;-76
2023/03/07 10:45:06;;;;;;;;;;;17.50;45.50;;;;;;10368585;28;1910;-75
2023/03/07 10:50:02;;;;;;;;;;;17.40;45.40;;;;;;10367924;28;909;-74
2023/03/07 10:54:57;;;;;;;;;;;17.40;45.50;;;;;;10367700;28;779;-74
2023/03/07 10:59:52;;;;;;;;;;;17.40;45.90;;;;;;10368206;28;889;-74
2023/03/07 11:04:48;;;;;;;;;;;17.40;45.70;;;;;;10367339;28;1972;-74
2023/03/07 11:09:43;;;;;;;;;;;17.40;45.60;;;;;;10367027;28;927;-75
2023/03/07 11:14:39;;;;;;;;;;;17.40;45.70;;;;;;10366509;28;866;-74
2023/03/07 11:19:34;;;;;;;;;;;17.40;45.40;;;;;;10367563;28;872;-74
2023/03/07 11:24:29;;;;;;;;;;;17.40;45.20;;;;;;10366661;28;1910;-74
2023/03/07 11:29:27;;;;;;;;;;;17.40;45.20;;;;;;10367877;28;885;-74
2023/03/07 11:34:22;;;;;;;;;;;17.50;45.10;;;;;;10366496;28;929;-74
2023/03/07 11:39:17;;;;;;;;;;;17.50;45.20;;;;;;10366813;28;1088;-74
2023/03/07 11:44:13;;;;;;;;;;;17.50;45.20;;;;;;10366627;28;1914;-74
2023/03/07 11:49:09;;;;;;;;;;;17.50;45.80;;;;;;10365721;28;838;-74
2023/03/07 11:54:04;;;;;;;;;;;17.50;45.20;;;;;;10365575;28;890;-74
2023/03/07 11:58:59;;;;;;;;;;;17.50;45.00;;;;;;10366646;28;854;-74
2023/03/07 12:03:55;;;;;;;;;;;17.50;45.00;;;;;;10366491;28;1905;-74
2023/03/07 12:08:50;;;;;;;;;;;17.50;45.00;;;;;;10366482;28;869;-74
2023/03/07 12:13:46;;;;;;;;;;;17.50;45.00;;;;;;10365804;28;1000;-74
2023/03/07 12:18:41;;;;;;;;;;;17.50;44.90;;;;;;10366273;28;887;-74
2023/03/07 12:23:38;;;;;;;;;;;17.50;45.00;;;;;;10365496;28;1964;-74
2023/03/07 12:28:33;;;;;;;;;;;17.60;44.90;;;;;;10366054;28;864;-74
2023/03/07 12:33:28;;;;;;;;;;;17.60;44.80;;;;;;10368979;28;819;-74
2023/03/07 12:38:24;;;;;;;;;;;17.60;44.90;;;;;;10373092;28;777;-74
2023/03/07 12:43:19;;;;;;;;;;;17.60;44.80;;;;;;10329426;28;1910;-74
2023/03/07 12:48:14;;;;;;;;;;;17.60;44.70;;;;;;10330826;28;867;-74
2023/03/07 12:53:10;;;;;;;;;;;17.60;44.70;;;;;;10331174;28;957;-74
2023/03/07 12:58:05;;;;;;;;;;;17.60;44.80;;;;;;10331940;28;856;-74
2023/03/07 13:03:01;;;;;;;;;;;17.60;44.70;;;;;;10330766;28;1897;-75
2023/03/07 13:07:56;;;;;;;;;;;17.50;44.60;;;;;;10331310;28;762;-76
2023/03/07 13:12:51;;;;;;;;;;;17.40;44.80;;;;;;10330984;28;857;-76
2023/03/07 13:17:47;;;;;;;;;;;17.30;44.90;;;;;;10330392;28;946;-75
2023/03/07 13:22:42;;;;;;;;;;;17.20;44.90;;;;;;10330731;28;1959;-75
2023/03/07 13:27:37;;;;;;;;;;;17.20;44.90;;;;;;10331160;28;805;-76
2023/03/07 13:32:33;;;;;;;;;;;17.20;44.90;;;;;;10330463;28;889;-76
2023/03/07 13:37:28;;;;;;;;;;;17.20;45.00;;;;;;10329069;28;1025;-76
2023/03/07 13:42:24;;;;;;;;;;;17.20;44.90;;;;;;10359420;28;1408;-75
2023/03/07 13:47:19;;;;;;;;;;;17.20;44.80;;;;;;10370676;28;1910;-75
2023/03/07 13:52:14;;;;;;;;;;;17.20;44.90;;;;;;10370273;28;873;-75
2023/03/07 13:57:10;;;;;;;;;;;17.20;44.80;;;;;;10370624;28;893;-76
2023/03/07 14:02:05;;;;;;;;;;;17.20;44.90;;;;;;10369539;28;795;-75
2023/03/07 14:07:00;;;;;;;;;;;17.30;44.70;;;;;;10369310;28;1906;-76
2023/03/07 14:11:56;;;;;;;;;;;17.50;44.90;;;;;;10369811;28;913;-76
2023/03/07 14:16:51;;;;;;;;;;;17.50;44.70;;;;;;10368393;28;959;-76
2023/03/07 14:21:47;;;;;;;;;;;17.60;44.80;;;;;;10368900;28;818;-75
2023/03/07 14:26:42;;;;;;;;;;;17.60;44.80;;;;;;10369274;28;1894;-76
2023/03/07 14:31:37;;;;;;;;;;;17.60;44.90;;;;;;10368419;28;797;-76
2023/03/07 14:36:33;;;;;;;;;;;17.60;44.90;;;;;;10368893;28;874;-75
2023/03/07 14:41:34;;;;;;;;;;;17.60;44.70;;;;;;10367915;28;1338;-76
2023/03/07 14:46:30;;;;;;;;;;;17.60;44.50;;;;;;10368584;28;1963;-75
2023/03/07 14:51:25;;;;;;;;;;;17.60;45.20;;;;;;10368479;28;908;-76
2023/03/07 14:56:20;;;;;;;;;;;17.60;44.70;;;;;;10366097;28;1135;-76
2023/03/07 15:01:17;;;;;;;;;;;17.70;44.60;;;;;;10367315;28;878;-75
2023/03/07 15:06:12;;;;;;;;;;;17.70;44.60;;;;;;10367916;28;1963;-75
2023/03/07 15:11:08;;;;;;;;;;;17.60;44.40;;;;;;10367302;28;953;-75
2023/03/07 15:16:03;;;;;;;;;;;17.50;44.20;;;;;;10367071;28;830;-76
2023/03/07 15:20:58;;;;;;;;;;;17.50;44.30;;;;;;10367733;28;768;-76
2023/03/07 15:25:54;;;;;;;;;;;17.60;44.20;;;;;;10367364;28;1913;-76
2023/03/07 15:30:49;;;;;;;;;;;17.60;44.40;;;;;;10366873;28;780;-73
2023/03/07 15:35:45;;;;;;;;;;;17.60;44.30;;;;;;10366478;28;988;-80
2023/03/07 15:40:40;;;;;;;;;;;17.50;44.30;;;;;;10366710;28;1282;-77
2023/03/07 15:45:37;;;;;;;;;;;17.30;44.70;;;;;;10366290;28;1969;-77
2023/03/07 15:50:32;;;;;;;;;;;17.20;44.70;;;;;;10366151;28;889;-82
2023/03/07 15:55:28;;;;;;;;;;;17.30;44.60;;;;;;10366172;28;875;-82
2023/03/07 16:00:23;;;;;;;;;;;17.50;44.50;;;;;;10366576;28;795;-82
2023/03/07 16:05:18;;;;;;;;;;;17.50;44.50;;;;;;10365624;28;1977;-82
2023/03/07 16:10:14;;;;;;;;;;;17.60;44.60;;;;;;10373641;28;796;-82
2023/03/07 16:15:09;;;;;;;;;;;17.60;44.50;;;;;;10374673;28;929;-82
2023/03/07 16:20:04;;;;;;;;;;;17.50;44.40;;;;;;10374483;28;784;-82
2023/03/07 16:25:01;;;;;;;;;;;17.40;44.50;;;;;;10373624;28;1902;-81
2023/03/07 16:29:56;;;;;;;;;;;17.40;44.50;;;;;;10374081;28;795;-82
2023/03/07 16:34:51;;;;;;;;;;;17.50;44.50;;;;;;10373480;28;884;-82
2023/03/07 16:39:47;;;;;;;;;;;17.50;44.50;;;;;;10373116;28;1412;-82
2023/03/07 16:44:43;;;;;;;;;;;17.50;44.50;;;;;;10372959;28;1979;-81
2023/03/07 16:49:38;;;;;;;;;;;17.40;44.30;;;;;;10372699;28;1153;-82
2023/03/07 16:54:33;;;;;;;;;;;17.50;44.50;;;;;;10372556;28;940;-81
2023/03/07 16:59:29;;;;;;;;;;;17.50;44.50;;;;;;10372288;28;861;-82
2023/03/07 17:04:24;;;;;;;;;;;17.50;44.60;;;;;;10372647;28;1910;-82
2023/03/07 17:09:19;;;;;;;;;;;17.60;44.60;;;;;;10372429;28;1044;-79
2023/03/07 17:14:15;;;;;;;;;;;17.60;44.70;;;;;;10371839;28;977;-79
2023/03/07 17:19:10;;;;;;;;;;;17.30;44.90;;;;;;10370952;28;760;-79
2023/03/07 17:24:05;;;;;;;;;;;17.20;45.10;;;;;;10371398;28;1909;-79
2023/03/07 17:29:01;;;;;;;;;;;17.20;45.20;;;;;;10371249;28;1024;-79
2023/03/07 17:33:56;;;;;;;;;;;17.10;45.10;;;;;;10371074;28;768;-79
2023/03/07 17:38:52;;;;;;;;;;;17.10;45.20;;;;;;10370633;28;1241;-79
2023/03/07 17:43:47;;;;;;;;;;;17.10;45.00;;;;;;10370575;28;1909;-77
2023/03/07 17:48:42;;;;;;;;;;;17.10;45.00;;;;;;10371292;28;783;-78
2023/03/07 17:53:38;;;;;;;;;;;17.10;44.90;;;;;;10370292;28;819;-79
2023/03/07 17:58:33;;;;;;;;;;;17.10;44.90;;;;;;10370259;28;874;-79
2023/03/07 18:03:28;;;;;;;;;;;17.10;45.00;;;;;;10369802;28;1898;-79
2023/03/07 18:08:24;;;;;;;;;;;17.10;44.90;;;;;;10370880;28;888;-79
2023/03/07 18:13:23;;;;;;;;;;;17.10;44.90;;;;;;10369676;28;795;-79
2023/03/07 18:18:18;;;;;;;;;;;17.10;44.90;;;;;;10369213;28;881;-79
2023/03/07 18:23:13;;;;;;;;;;;17.10;44.90;;;;;;10369026;28;1901;-79
2023/03/07 18:28:09;;;;;;;;;;;17.10;44.90;;;;;;10368895;28;834;-79
2023/03/07 18:33:04;;;;;;;;;;;17.10;44.80;;;;;;10367830;28;901;-79
2023/03/07 18:37:59;;;;;;;;;;;17.10;44.80;;;;;;10367904;28;922;-79
2023/03/07 18:42:58;;;;;;;;;;;17.00;44.80;;;;;;10367351;28;1910;-79
2023/03/07 18:47:53;;;;;;;;;;;17.10;44.90;;;;;;10369098;28;852;-79
2023/03/07 18:52:48;;;;;;;;;;;17.10;44.80;;;;;;10368187;28;962;-79
2023/03/07 18:57:44;;;;;;;;;;;17.10;44.80;;;;;;10367780;28;836;-79
2023/03/07 19:02:39;;;;;;;;;;;17.10;44.80;;;;;;10368277;28;936;-79
2023/03/07 19:07:35;;;;;;;;;;;17.10;44.80;;;;;;10368060;28;1898;-79
2023/03/07 19:12:30;;;;;;;;;;;17.00;44.80;;;;;;10367317;28;865;-79
2023/03/07 19:17:25;;;;;;;;;;;17.10;44.80;;;;;;10367741;28;885;-79
2023/03/07 19:22:22;;;;;;;;;;;17.10;44.70;;;;;;10367587;28;771;-79
2023/03/07 19:27:18;;;;;;;;;;;17.00;44.70;;;;;;10366796;28;1898;-79
2023/03/07 19:32:13;;;;;;;;;;;17.00;44.70;;;;;;10367505;28;806;-81
2023/03/07 19:37:08;;;;;;;;;;;17.10;44.70;;;;;;10366603;28;875;-79
2023/03/07 19:42:04;;;;;;;;;;;17.00;44.70;;;;;;10365946;28;1186;-75
2023/03/07 19:46:59;;;;;;;;;;;17.10;44.50;;;;;;10366278;28;1930;-75
2023/03/07 19:51:54;;;;;;;;;;;17.00;44.50;;;;;;10367000;28;764;-75
2023/03/07 19:56:50;;;;;;;;;;;17.00;44.50;;;;;;10366796;28;830;-75
2023/03/07 20:01:45;;;;;;;;;;;17.00;44.50;;;;;;10366083;28;928;-75
2023/03/07 20:06:41;;;;;;;;;;;17.00;44.40;;;;;;10365937;28;1976;-75
2023/03/07 20:11:36;;;;;;;;;;;17.00;44.50;;;;;;10365069;28;1236;-75
2023/03/07 20:16:32;;;;;;;;;;;17.00;44.40;;;;;;10365762;28;824;-75
2023/03/07 20:21:27;;;;;;;;;;;17.10;44.40;;;;;;10365606;28;885;-75
2023/03/07 20:26:23;;;;;;;;;;;17.00;44.30;;;;;;10365522;28;1905;-75
2023/03/07 20:31:18;;;;;;;;;;;17.00;44.30;;;;;;10365477;28;835;-75
2023/03/07 20:36:14;;;;;;;;;;;17.10;44.20;;;;;;10365301;28;920;-75
2023/03/07 20:41:09;;;;;;;;;;;17.00;44.20;;;;;;10365410;28;1294;-75
2023/03/07 20:46:05;;;;;;;;;;;17.00;44.20;;;;;;10365977;28;1918;-75
2023/03/07 20:51:00;;;;;;;;;;;17.00;44.40;;;;;;10365197;28;889;-75
2023/03/07 20:55:55;;;;;;;;;;;17.00;44.40;;;;;;10370140;28;901;-75
2023/03/07 21:00:51;;;;;;;;;;;17.00;44.40;;;;;;10372668;28;856;-75
2023/03/07 21:05:46;;;;;;;;;;;16.90;44.40;;;;;;10372153;28;1981;-75
2023/03/07 21:10:41;;;;;;;;;;;16.90;44.50;;;;;;10372973;28;901;-74
2023/03/07 21:15:37;;;;;;;;;;;16.90;44.40;;;;;;10371803;28;845;-74
2023/03/07 21:20:33;;;;;;;;;;;16.90;44.50;;;;;;10371015;28;895;-74
2023/03/07 21:25:28;;;;;;;;;;;16.90;44.50;;;;;;10371317;28;1910;-74
2023/03/07 21:30:23;;;;;;;;;;;16.90;44.50;;;;;;10371235;28;886;-74
2023/03/07 21:35:19;;;;;;;;;;;16.90;44.40;;;;;;10371045;28;801;-74
2023/03/07 21:40:14;;;;;;;;;;;16.90;44.40;;;;;;10370879;28;1120;-74
2023/03/07 21:45:11;;;;;;;;;;;16.90;44.40;;;;;;10370540;28;1926;-74
2023/03/07 21:50:06;;;;;;;;;;;16.90;44.40;;;;;;10370416;28;946;-74
2023/03/07 21:55:01;;;;;;;;;;;16.90;44.30;;;;;;10371033;28;799;-74
2023/03/07 21:59:57;;;;;;;;;;;16.90;44.40;;;;;;10369620;28;815;-74
2023/03/07 22:04:52;;;;;;;;;;;16.90;44.40;;;;;;10369535;28;1954;-74
2023/03/07 22:09:47;;;;;;;;;;;16.90;44.30;;;;;;10369702;28;778;-74
2023/03/07 22:14:43;;;;;;;;;;;16.90;44.30;;;;;;10369007;28;965;-74
2023/03/07 22:19:38;;;;;;;;;;;16.90;44.40;;;;;;10368692;28;881;-74
2023/03/07 22:24:33;;;;;;;;;;;16.80;44.30;;;;;;10369042;28;1976;-74
2023/03/07 22:29:29;;;;;;;;;;;16.90;44.40;;;;;;10369521;28;878;-74
2023/03/07 22:34:25;;;;;;;;;;;16.90;44.40;;;;;;10368443;28;973;-74
2023/03/07 22:39:20;;;;;;;;;;;16.90;44.40;;;;;;10368312;28;1115;-74
2023/03/07 22:44:18;;;;;;;;;;;16.80;44.40;;;;;;10368945;28;1953;-74
2023/03/07 22:49:13;;;;;;;;;;;16.80;44.40;;;;;;10368204;28;834;-74
2023/03/07 22:54:08;;;;;;;;;;;16.80;44.40;;;;;;10368011;28;854;-74
2023/03/07 22:59:04;;;;;;;;;;;16.80;44.40;;;;;;10368522;28;872;-74
2023/03/07 23:03:59;;;;;;;;;;;16.80;44.40;;;;;;10368141;28;1918;-74
2023/03/07 23:08:55;;;;;;;;;;;16.80;44.40;;;;;;10367277;28;1040;-74
2023/03/07 23:13:50;;;;;;;;;;;16.80;44.40;;;;;;10367892;28;802;-74
2023/03/07 23:18:49;;;;;;;;;;;16.70;44.40;;;;;;10366589;28;925;-74
2023/03/07 23:23:44;;;;;;;;;;;16.80;44.40;;;;;;10366847;28;1913;-74
2023/03/07 23:28:40;;;;;;;;;;;16.80;44.30;;;;;;10368237;28;867;-74
2023/03/07 23:33:35;;;;;;;;;;;16.80;44.40;;;;;;10366707;28;1157;-74
2023/03/07 23:38:30;;;;;;;;;;;16.80;44.30;;;;;;10367215;28;810;-74
2023/03/07 23:43:26;;;;;;;;;;;16.80;44.40;;;;;;10366759;28;1981;-74
2023/03/07 23:48:21;;;;;;;;;;;16.80;44.50;;;;;;10367097;28;892;-74
2023/03/07 23:53:16;;;;;;;;;;;16.80;44.40;;;;;;10366919;28;807;-74
2023/03/07 23:58:12;;;;;;;;;;;16.80;44.40;;;;;;10366191;28;895;-74
